createdAt,value
2022-07-28T00:00:08.562Z,19.08
2022-07-28T00:01:08.137Z,19.06
2022-07-28T00:02:08.226Z,19.04
2022-07-28T00:03:08.169Z,19.02
2022-07-28T00:04:08.105Z,18.99
2022-07-28T00:05:08.108Z,18.98
2022-07-28T00:06:08.101Z,18.98
2022-07-28T00:07:08.060Z,18.99
2022-07-28T00:08:08.081Z,18.95
2022-07-28T00:09:08.053Z,18.95
2022-07-28T00:10:08.016Z,18.95
2022-07-28T00:11:08.797Z,18.94
2022-07-28T00:12:07.991Z,18.95
2022-07-28T00:13:08.013Z,18.94
2022-07-28T00:14:07.984Z,18.91
2022-07-28T00:15:07.981Z,18.88
2022-07-28T00:16:07.996Z,18.84
2022-07-28T00:17:08.001Z,18.82
2022-07-28T00:18:07.937Z,18.80
2022-07-28T00:19:07.924Z,18.81
2022-07-28T00:20:07.895Z,18.81
2022-07-28T00:21:07.890Z,18.84
2022-07-28T00:22:07.924Z,18.85
2022-07-28T00:23:07.897Z,18.82
2022-07-28T00:24:07.875Z,18.80
2022-07-28T00:25:07.833Z,18.76
2022-07-28T00:26:07.843Z,18.73
2022-07-28T00:27:07.844Z,18.70
2022-07-28T00:28:07.788Z,18.67
2022-07-28T00:29:07.780Z,18.69
2022-07-28T00:30:07.770Z,18.65
2022-07-28T00:31:09.948Z,18.60
2022-07-28T00:32:07.822Z,18.62
2022-07-28T00:33:07.757Z,18.62
2022-07-28T00:34:07.720Z,18.62
2022-07-28T00:35:08.310Z,18.60
2022-07-28T00:36:10.407Z,18.60
2022-07-28T00:37:07.730Z,18.55
2022-07-28T00:38:07.689Z,18.51
2022-07-28T00:39:07.693Z,18.50
2022-07-28T00:40:07.654Z,18.48
2022-07-28T00:41:07.627Z,18.47
2022-07-28T00:42:07.611Z,18.47
2022-07-28T00:43:07.597Z,18.45
2022-07-28T00:44:07.606Z,18.42
2022-07-28T00:45:07.694Z,18.41
2022-07-28T00:46:07.627Z,18.41
2022-07-28T00:47:07.558Z,18.42
2022-07-28T00:48:07.545Z,18.42
2022-07-28T00:49:07.624Z,18.41
2022-07-28T00:50:07.513Z,18.39
2022-07-28T00:51:07.497Z,18.37
2022-07-28T00:52:07.481Z,18.37
2022-07-28T00:53:07.480Z,18.36
2022-07-28T00:54:07.446Z,18.33
2022-07-28T00:55:07.475Z,18.33
2022-07-28T00:56:07.449Z,18.30
2022-07-28T00:57:07.415Z,18.29
2022-07-28T00:58:07.407Z,18.26
2022-07-28T00:59:07.487Z,18.25
2022-07-28T01:00:07.389Z,18.25
2022-07-28T01:01:07.349Z,18.23
2022-07-28T01:02:07.514Z,18.23
2022-07-28T01:03:07.432Z,18.25
2022-07-28T01:04:07.354Z,18.21
2022-07-28T01:05:07.327Z,18.20
2022-07-28T01:06:07.315Z,18.17
2022-07-28T01:07:07.287Z,18.17
2022-07-28T01:08:07.291Z,18.18
2022-07-28T01:09:07.255Z,18.17
2022-07-28T01:10:07.232Z,18.15
2022-07-28T01:11:07.260Z,18.15
2022-07-28T01:12:07.255Z,18.17
2022-07-28T01:13:07.230Z,18.15
2022-07-28T01:14:07.195Z,18.17
2022-07-28T01:15:07.205Z,18.17
2022-07-28T01:16:07.288Z,18.14
2022-07-28T01:17:07.175Z,18.12
2022-07-28T01:18:07.152Z,18.11
2022-07-28T01:19:07.150Z,18.12
2022-07-28T01:20:07.238Z,18.12
2022-07-28T01:21:07.092Z,18.11
2022-07-28T01:22:07.102Z,18.10
2022-07-28T01:23:07.073Z,18.10
2022-07-28T01:24:07.077Z,18.12
2022-07-28T01:25:07.055Z,18.12
2022-07-28T01:26:07.044Z,18.15
2022-07-28T01:27:07.061Z,18.14
2022-07-28T01:28:07.022Z,18.15
2022-07-28T01:29:07.033Z,18.11
2022-07-28T01:30:06.970Z,18.08
2022-07-28T01:31:07.115Z,18.05
2022-07-28T01:32:06.950Z,18.02
2022-07-28T01:33:06.932Z,17.97
2022-07-28T01:34:06.937Z,17.96
2022-07-28T01:35:06.897Z,17.96
2022-07-28T01:36:06.902Z,17.97
2022-07-28T01:37:06.922Z,17.95
2022-07-28T01:38:06.901Z,17.92
2022-07-28T01:39:06.856Z,17.92
2022-07-28T01:40:06.869Z,17.92
2022-07-28T01:41:06.849Z,17.92
2022-07-28T01:42:06.836Z,17.90
2022-07-28T01:43:06.832Z,17.92
2022-07-28T01:44:06.811Z,17.90
2022-07-28T01:45:06.778Z,17.89
2022-07-28T01:46:06.858Z,17.92
2022-07-28T01:47:06.766Z,17.93
2022-07-28T01:48:06.758Z,17.90
2022-07-28T01:49:06.860Z,17.93
2022-07-28T01:50:06.754Z,17.92
2022-07-28T01:51:06.766Z,17.90
2022-07-28T01:52:06.685Z,17.90
2022-07-28T01:53:06.689Z,17.89
2022-07-28T01:54:06.656Z,17.90
2022-07-28T01:55:06.691Z,17.90
2022-07-28T01:56:06.665Z,17.92
2022-07-28T01:57:06.672Z,17.90
2022-07-28T01:58:06.608Z,17.87
2022-07-28T01:59:06.593Z,17.87
2022-07-28T02:00:06.688Z,17.86
2022-07-28T02:01:06.608Z,17.82
2022-07-28T02:02:06.726Z,17.78
2022-07-28T02:03:06.561Z,17.74
2022-07-28T02:04:06.542Z,17.72
2022-07-28T02:05:06.579Z,17.71
2022-07-28T02:06:06.531Z,17.68
2022-07-28T02:07:06.494Z,17.68
2022-07-28T02:08:06.480Z,17.66
2022-07-28T02:09:06.442Z,17.68
2022-07-28T02:10:06.502Z,17.64
2022-07-28T02:11:09.880Z,17.63
2022-07-28T02:12:06.442Z,17.62
2022-07-28T02:13:06.425Z,17.59
2022-07-28T02:14:06.386Z,17.59
2022-07-28T02:15:06.388Z,17.58
2022-07-28T02:16:06.424Z,17.56
2022-07-28T02:17:06.346Z,17.52
2022-07-28T02:18:06.361Z,17.54
2022-07-28T02:19:06.326Z,17.56
2022-07-28T02:20:06.330Z,17.55
2022-07-28T02:21:06.323Z,17.55
2022-07-28T02:22:06.330Z,17.52
2022-07-28T02:23:06.281Z,17.52
2022-07-28T02:24:06.270Z,17.49
2022-07-28T02:25:06.261Z,17.48
2022-07-28T02:26:06.263Z,17.43
2022-07-28T02:27:06.240Z,17.40
2022-07-28T02:28:06.236Z,17.40
2022-07-28T02:29:06.214Z,17.37
2022-07-28T02:30:06.178Z,17.40
2022-07-28T02:31:06.261Z,17.40
2022-07-28T02:32:06.185Z,17.38
2022-07-28T02:33:06.157Z,17.38
2022-07-28T02:34:07.739Z,17.40
2022-07-28T02:35:06.141Z,17.40
2022-07-28T02:36:06.124Z,17.38
2022-07-28T02:37:06.090Z,17.34
2022-07-28T02:38:06.095Z,17.31
2022-07-28T02:39:06.087Z,17.31
2022-07-28T02:40:06.111Z,17.33
2022-07-28T02:41:06.074Z,17.36
2022-07-28T02:42:06.015Z,17.37
2022-07-28T02:43:06.008Z,17.34
2022-07-28T02:44:05.974Z,17.30
2022-07-28T02:45:06.022Z,17.26
2022-07-28T02:46:06.008Z,17.22
2022-07-28T02:47:05.951Z,17.18
2022-07-28T02:48:05.947Z,17.15
2022-07-28T02:49:05.995Z,17.18
2022-07-28T02:50:05.975Z,17.16
2022-07-28T02:51:05.915Z,17.14
2022-07-28T02:52:05.952Z,17.14
2022-07-28T02:53:14.829Z,17.12
2022-07-28T02:54:05.869Z,17.12
2022-07-28T02:55:05.861Z,17.12
2022-07-28T02:56:05.836Z,17.11
2022-07-28T02:57:05.841Z,17.08
2022-07-28T02:58:05.819Z,17.11
2022-07-28T02:59:05.804Z,17.12
2022-07-28T03:00:05.800Z,17.14
2022-07-28T03:01:05.847Z,17.14
2022-07-28T03:02:05.772Z,17.12
2022-07-28T03:03:05.747Z,17.11
2022-07-28T03:04:05.780Z,17.11
2022-07-28T03:05:07.597Z,17.11
2022-07-28T03:06:05.740Z,17.08
2022-07-28T03:07:05.702Z,17.06
2022-07-28T03:08:05.710Z,17.06
2022-07-28T03:09:05.659Z,17.03
2022-07-28T03:10:05.680Z,17.00
2022-07-28T03:11:05.644Z,16.94
2022-07-28T03:12:05.619Z,16.91
2022-07-28T03:13:05.616Z,16.91
2022-07-28T03:14:05.618Z,16.93
2022-07-28T03:15:05.589Z,16.86
2022-07-28T03:16:05.557Z,16.86
2022-07-28T03:17:05.703Z,16.85
2022-07-28T03:18:05.551Z,16.83
2022-07-28T03:19:05.534Z,16.81
2022-07-28T03:20:05.511Z,16.79
2022-07-28T03:21:05.500Z,16.81
2022-07-28T03:22:05.522Z,16.81
2022-07-28T03:23:05.512Z,16.79
2022-07-28T03:24:05.499Z,16.76
2022-07-28T03:25:05.449Z,16.73
2022-07-28T03:26:05.471Z,16.71
2022-07-28T03:27:05.436Z,16.73
2022-07-28T03:28:05.406Z,16.73
2022-07-28T03:29:05.389Z,16.75
2022-07-28T03:30:05.413Z,16.73
2022-07-28T03:31:05.483Z,16.75
2022-07-28T03:32:05.349Z,16.71
2022-07-28T03:33:05.340Z,16.70
2022-07-28T03:34:05.441Z,16.71
2022-07-28T03:35:05.323Z,16.70
2022-07-28T03:36:05.323Z,16.71
2022-07-28T03:37:05.283Z,16.70
2022-07-28T03:38:05.305Z,16.70
2022-07-28T03:39:05.799Z,16.70
2022-07-28T03:40:05.246Z,16.68
2022-07-28T03:41:05.235Z,16.63
2022-07-28T03:42:05.259Z,16.61
2022-07-28T03:43:05.731Z,16.58
2022-07-28T03:44:05.187Z,16.61
2022-07-28T03:45:05.216Z,16.61
2022-07-28T03:46:07.583Z,16.63
2022-07-28T03:47:05.204Z,16.63
2022-07-28T03:48:05.160Z,16.61
2022-07-28T03:49:05.189Z,16.63
2022-07-28T03:50:05.126Z,16.64
2022-07-28T03:51:05.103Z,16.64
2022-07-28T03:52:05.091Z,16.64
2022-07-28T03:53:05.160Z,16.61
2022-07-28T03:54:05.079Z,16.61
2022-07-28T03:55:05.081Z,16.60
2022-07-28T03:56:05.051Z,16.58
2022-07-28T03:57:05.046Z,16.53
2022-07-28T03:58:05.008Z,16.50
2022-07-28T03:59:05.014Z,16.46
2022-07-28T04:00:09.498Z,16.43
2022-07-28T04:01:04.990Z,16.42
2022-07-28T04:02:05.063Z,16.42
2022-07-28T04:03:04.934Z,16.41
2022-07-28T04:04:05.007Z,16.43
2022-07-28T04:05:04.969Z,16.42
2022-07-28T04:06:04.908Z,16.45
2022-07-28T04:07:04.926Z,16.46
2022-07-28T04:08:04.892Z,16.48
2022-07-28T04:09:04.867Z,16.49
2022-07-28T04:10:04.868Z,16.49
2022-07-28T04:11:04.849Z,16.49
2022-07-28T04:12:04.843Z,16.49
2022-07-28T04:13:04.843Z,16.50
2022-07-28T04:14:04.800Z,16.53
2022-07-28T04:15:04.805Z,16.53
2022-07-28T04:16:04.772Z,16.56
2022-07-28T04:17:04.819Z,16.53
2022-07-28T04:18:04.767Z,16.53
2022-07-28T04:19:04.730Z,16.56
2022-07-28T04:20:04.725Z,16.52
2022-07-28T04:21:04.736Z,16.49
2022-07-28T04:22:04.703Z,16.46
2022-07-28T04:23:04.673Z,16.45
2022-07-28T04:24:04.657Z,16.45
2022-07-28T04:25:04.685Z,16.43
2022-07-28T04:26:04.663Z,16.42
2022-07-28T04:27:04.638Z,16.45
2022-07-28T04:28:05.519Z,16.45
2022-07-28T04:29:04.636Z,16.46
2022-07-28T04:30:04.600Z,16.46
2022-07-28T04:31:04.749Z,16.48
2022-07-28T04:32:04.581Z,16.53
2022-07-28T04:33:04.569Z,16.58
2022-07-28T04:34:04.638Z,16.63
2022-07-28T04:35:04.517Z,16.64
2022-07-28T04:36:04.528Z,16.67
2022-07-28T04:37:04.516Z,16.68
2022-07-28T04:38:04.940Z,16.67
2022-07-28T04:39:04.577Z,16.67
2022-07-28T04:40:04.485Z,16.66
2022-07-28T04:41:04.470Z,16.66
2022-07-28T04:42:04.440Z,16.66
2022-07-28T04:43:04.451Z,16.68
2022-07-28T04:44:04.405Z,16.70
2022-07-28T04:45:04.421Z,16.73
2022-07-28T04:46:04.443Z,16.73
2022-07-28T04:47:06.390Z,16.76
2022-07-28T04:48:04.422Z,16.78
2022-07-28T04:49:04.474Z,16.81
2022-07-28T04:50:04.322Z,16.82
2022-07-28T04:51:04.377Z,16.85
2022-07-28T04:52:04.325Z,16.88
2022-07-28T04:53:04.324Z,16.91
2022-07-28T04:54:04.294Z,16.93
2022-07-28T04:55:04.262Z,16.91
2022-07-28T04:56:04.327Z,16.93
2022-07-28T04:57:05.382Z,16.94
2022-07-28T04:58:04.326Z,16.94
2022-07-28T04:59:04.224Z,16.94
2022-07-28T05:00:04.189Z,16.94
2022-07-28T05:01:04.273Z,17.00
2022-07-28T05:02:04.209Z,17.03
2022-07-28T05:03:04.220Z,17.03
2022-07-28T05:04:04.208Z,17.04
2022-07-28T05:05:04.301Z,17.04
2022-07-28T05:06:04.105Z,17.04
2022-07-28T05:07:11.825Z,17.04
2022-07-28T05:08:04.160Z,17.04
2022-07-28T05:09:04.139Z,17.06
2022-07-28T05:10:04.083Z,17.11
2022-07-28T05:11:04.059Z,17.08
2022-07-28T05:12:04.040Z,17.08
2022-07-28T05:13:04.050Z,17.08
2022-07-28T05:14:04.021Z,17.14
2022-07-28T05:15:04.008Z,17.16
2022-07-28T05:16:04.037Z,17.19
2022-07-28T05:17:03.994Z,17.22
2022-07-28T05:18:03.977Z,17.26
2022-07-28T05:19:03.986Z,17.30
2022-07-28T05:20:03.947Z,17.31
2022-07-28T05:21:03.908Z,17.31
2022-07-28T05:22:03.910Z,17.34
2022-07-28T05:23:03.905Z,17.34
2022-07-28T05:24:03.870Z,17.37
2022-07-28T05:25:04.108Z,17.40
2022-07-28T05:26:03.853Z,17.48
2022-07-28T05:27:03.841Z,17.51
2022-07-28T05:28:03.879Z,17.52
2022-07-28T05:29:03.861Z,17.55
2022-07-28T05:30:03.875Z,17.59
2022-07-28T05:31:03.829Z,17.58
2022-07-28T05:32:16.453Z,17.56
2022-07-28T05:33:03.784Z,17.58
2022-07-28T05:34:03.748Z,17.63
2022-07-28T05:35:03.739Z,17.64
2022-07-28T05:36:03.748Z,17.64
2022-07-28T05:37:03.701Z,17.66
2022-07-28T05:38:08.845Z,17.70
2022-07-28T05:39:03.728Z,17.70
2022-07-28T05:40:03.684Z,17.68
2022-07-28T05:41:03.679Z,17.71
2022-07-28T05:42:03.739Z,17.74
2022-07-28T05:43:04.425Z,17.78
2022-07-28T05:44:03.665Z,17.84
2022-07-28T05:45:03.688Z,17.86
2022-07-28T05:46:03.704Z,17.82
2022-07-28T05:47:03.977Z,17.84
2022-07-28T05:48:03.573Z,17.86
2022-07-28T05:49:03.613Z,17.89
2022-07-28T05:50:03.565Z,17.93
2022-07-28T05:51:03.548Z,17.93
2022-07-28T05:52:03.571Z,17.95
2022-07-28T05:53:03.541Z,17.97
2022-07-28T05:54:03.467Z,17.97
2022-07-28T05:55:03.480Z,17.99
2022-07-28T05:56:03.443Z,18.03
2022-07-28T05:57:03.469Z,18.08
2022-07-28T05:58:03.490Z,18.14
2022-07-28T05:59:03.416Z,18.14
2022-07-28T06:00:03.454Z,18.17
2022-07-28T06:01:03.530Z,18.17
2022-07-28T06:02:03.451Z,18.20
2022-07-28T06:03:03.368Z,18.26
2022-07-28T06:04:26.634Z,18.26
2022-07-28T06:05:03.332Z,18.25
2022-07-28T06:06:14.851Z,18.21
2022-07-28T06:07:03.299Z,18.21
2022-07-28T06:08:03.313Z,18.21
2022-07-28T06:09:03.281Z,18.18
2022-07-28T06:10:03.278Z,18.17
2022-07-28T06:11:03.297Z,18.15
2022-07-28T06:12:03.239Z,18.14
2022-07-28T06:13:03.241Z,18.10
2022-07-28T06:14:03.241Z,18.10
2022-07-28T06:15:03.179Z,18.08
2022-07-28T06:16:03.262Z,18.11
2022-07-28T06:17:03.270Z,18.14
2022-07-28T06:18:03.173Z,18.18
2022-07-28T06:19:03.167Z,18.20
2022-07-28T06:20:03.239Z,18.21
2022-07-28T06:21:03.138Z,18.23
2022-07-28T06:22:03.141Z,18.26
2022-07-28T06:23:03.136Z,18.30
2022-07-28T06:24:03.086Z,18.37
2022-07-28T06:25:03.067Z,18.48
2022-07-28T06:26:03.050Z,18.51
2022-07-28T06:27:03.097Z,18.57
2022-07-28T06:28:03.077Z,18.63
2022-07-28T06:29:03.025Z,18.67
2022-07-28T06:30:02.993Z,18.76
2022-07-28T06:31:02.997Z,18.80
2022-07-28T06:32:03.103Z,18.80
2022-07-28T06:33:02.983Z,18.76
2022-07-28T06:34:02.970Z,18.73
2022-07-28T06:35:02.933Z,18.75
2022-07-28T06:36:02.926Z,18.81
2022-07-28T06:37:02.913Z,18.84
2022-07-28T06:38:02.929Z,18.84
2022-07-28T06:39:02.901Z,18.82
2022-07-28T06:40:02.935Z,18.78
2022-07-28T06:41:02.870Z,18.75
2022-07-28T06:42:02.827Z,18.72
2022-07-28T06:43:02.875Z,18.76
2022-07-28T06:44:02.807Z,18.82
2022-07-28T06:45:02.803Z,18.84
2022-07-28T06:46:02.804Z,18.82
2022-07-28T06:47:02.867Z,18.82
2022-07-28T06:48:02.814Z,18.78
2022-07-28T06:49:02.809Z,18.81
2022-07-28T06:50:02.783Z,18.88
2022-07-28T06:51:02.746Z,19.00
2022-07-28T06:52:02.705Z,19.13
2022-07-28T06:53:02.690Z,19.21
2022-07-28T06:54:04.836Z,19.25
2022-07-28T06:55:02.683Z,19.28
2022-07-28T06:56:02.660Z,19.36
2022-07-28T06:57:02.658Z,19.39
2022-07-28T06:58:02.643Z,19.40
2022-07-28T06:59:02.655Z,19.37
2022-07-28T07:00:02.604Z,19.32
2022-07-28T07:01:02.785Z,19.31
2022-07-28T07:02:02.583Z,19.25
2022-07-28T07:03:02.575Z,19.16
2022-07-28T07:04:02.669Z,19.14
2022-07-28T07:05:02.533Z,19.10
2022-07-28T07:06:02.583Z,19.07
2022-07-28T07:07:02.520Z,19.04
2022-07-28T07:08:02.501Z,19.02
2022-07-28T07:09:02.478Z,19.04
2022-07-28T07:10:02.533Z,19.06
2022-07-28T07:11:02.475Z,19.10
2022-07-28T07:12:02.436Z,19.11
2022-07-28T07:13:02.449Z,19.13
2022-07-28T07:14:02.758Z,19.14
2022-07-28T07:15:02.482Z,19.19
2022-07-28T07:16:02.452Z,19.26
2022-07-28T07:17:02.430Z,19.40
2022-07-28T07:18:02.381Z,19.46
2022-07-28T07:19:06.906Z,19.50
2022-07-28T07:20:02.351Z,19.58
2022-07-28T07:21:02.362Z,19.58
2022-07-28T07:22:02.327Z,19.59
2022-07-28T07:23:02.305Z,19.58
2022-07-28T07:24:02.270Z,19.61
2022-07-28T07:25:02.292Z,19.66
2022-07-28T07:26:02.317Z,19.68
2022-07-28T07:27:02.264Z,19.76
2022-07-28T07:28:02.255Z,19.87
2022-07-28T07:29:02.258Z,19.94
2022-07-28T07:30:02.207Z,19.96
2022-07-28T07:31:02.313Z,20.02
2022-07-28T07:32:04.574Z,20.06
2022-07-28T07:33:02.186Z,20.02
2022-07-28T07:34:02.177Z,19.99
2022-07-28T07:35:02.202Z,19.94
2022-07-28T07:36:02.154Z,19.87
2022-07-28T07:37:02.174Z,19.84
2022-07-28T07:38:02.135Z,19.88
2022-07-28T07:39:02.134Z,19.92
2022-07-28T07:40:02.084Z,20.05
2022-07-28T07:41:02.052Z,20.23
2022-07-28T07:42:02.095Z,20.38
2022-07-28T07:43:02.083Z,20.50
2022-07-28T07:44:02.045Z,20.51
2022-07-28T07:45:02.002Z,20.51
2022-07-28T07:46:02.042Z,20.57
2022-07-28T07:47:02.029Z,20.66
2022-07-28T07:48:01.992Z,20.74
2022-07-28T07:49:01.985Z,20.80
2022-07-28T07:50:04.348Z,20.80
2022-07-28T07:51:01.954Z,20.84
2022-07-28T07:52:01.924Z,20.91
2022-07-28T07:53:01.918Z,20.88
2022-07-28T07:54:01.928Z,20.84
2022-07-28T07:55:01.885Z,20.82
2022-07-28T07:56:01.886Z,20.80
2022-07-28T07:57:01.869Z,20.74
2022-07-28T07:58:01.869Z,20.79
2022-07-28T07:59:01.858Z,20.88
2022-07-28T08:00:01.816Z,21.03
2022-07-28T08:01:01.820Z,21.14
2022-07-28T08:02:01.934Z,21.27
2022-07-28T08:03:01.800Z,21.43
2022-07-28T08:04:01.853Z,21.56
2022-07-28T08:05:01.809Z,21.71
2022-07-28T08:06:01.789Z,21.83
2022-07-28T08:07:01.719Z,22.00
2022-07-28T08:08:01.718Z,22.17
2022-07-28T08:09:01.849Z,22.20
2022-07-28T08:10:01.729Z,22.18
2022-07-28T08:11:01.675Z,22.06
2022-07-28T08:12:01.677Z,21.99
2022-07-28T08:13:01.691Z,21.92
2022-07-28T08:14:01.655Z,21.82
2022-07-28T08:15:01.638Z,21.84
2022-07-28T08:16:01.760Z,22.00
2022-07-28T08:17:01.645Z,22.15
2022-07-28T08:18:01.620Z,22.33
2022-07-28T08:19:01.557Z,22.46
2022-07-28T08:20:01.561Z,22.47
2022-07-28T08:21:01.575Z,22.40
2022-07-28T08:22:01.556Z,22.45
2022-07-28T08:23:01.512Z,22.49
2022-07-28T08:24:01.508Z,22.60
2022-07-28T08:25:01.487Z,22.62
2022-07-28T08:26:01.474Z,22.64
2022-07-28T08:27:01.471Z,22.76
2022-07-28T08:28:01.505Z,22.85
2022-07-28T08:29:01.493Z,22.91
2022-07-28T08:30:01.436Z,23.00
2022-07-28T08:31:01.456Z,23.10
2022-07-28T08:32:01.414Z,22.98
2022-07-28T08:33:01.391Z,22.97
2022-07-28T08:34:01.393Z,23.01
2022-07-28T08:35:31.184Z,23.13
2022-07-28T08:36:01.351Z,23.28
2022-07-28T08:37:01.351Z,23.47
2022-07-28T08:38:01.353Z,23.48
2022-07-28T08:39:01.333Z,23.47
2022-07-28T08:40:01.303Z,23.27
2022-07-28T08:41:01.296Z,23.35
2022-07-28T08:42:01.267Z,23.47
2022-07-28T08:43:01.398Z,23.53
2022-07-28T08:44:01.274Z,23.58
2022-07-28T08:45:01.239Z,23.60
2022-07-28T08:46:01.278Z,23.75
2022-07-28T08:47:01.308Z,23.91
2022-07-28T08:48:09.692Z,23.97
2022-07-28T08:49:01.272Z,23.93
2022-07-28T08:50:01.190Z,23.94
2022-07-28T08:51:01.144Z,23.84
2022-07-28T08:52:01.142Z,23.85
2022-07-28T08:53:01.176Z,23.87
2022-07-28T08:54:01.180Z,24.00
2022-07-28T08:55:01.126Z,24.02
2022-07-28T08:56:01.097Z,24.05
2022-07-28T08:57:01.084Z,23.95
2022-07-28T08:58:01.072Z,23.95
2022-07-28T08:59:01.056Z,23.94
2022-07-28T09:00:01.081Z,23.95
2022-07-28T09:01:01.024Z,23.91
2022-07-28T09:02:01.129Z,23.91
2022-07-28T09:03:01.088Z,24.00
2022-07-28T09:04:01.024Z,24.09
2022-07-28T09:05:00.980Z,24.21
2022-07-28T09:06:00.970Z,24.22
2022-07-28T09:07:00.957Z,24.18
2022-07-28T09:08:00.929Z,24.22
2022-07-28T09:09:00.960Z,24.22
2022-07-28T09:10:02.871Z,24.25
2022-07-28T09:11:00.927Z,24.32
2022-07-28T09:12:00.924Z,24.49
2022-07-28T09:13:00.936Z,24.47
2022-07-28T09:14:00.902Z,24.49
2022-07-28T09:15:00.885Z,24.57
2022-07-28T09:16:00.936Z,24.69
2022-07-28T09:17:00.839Z,24.71
2022-07-28T09:18:01.506Z,24.69
2022-07-28T09:19:00.808Z,24.77
2022-07-28T09:20:00.753Z,24.85
2022-07-28T09:21:00.841Z,25.00
2022-07-28T09:22:00.771Z,25.00
2022-07-28T09:23:00.760Z,24.84
2022-07-28T09:24:00.739Z,24.87
2022-07-28T09:25:00.806Z,24.84
2022-07-28T09:26:00.783Z,24.88
2022-07-28T09:27:00.720Z,24.83
2022-07-28T09:28:00.715Z,24.83
2022-07-28T09:29:00.723Z,24.98
2022-07-28T09:30:00.636Z,25.03
2022-07-28T09:31:00.747Z,25.15
2022-07-28T09:32:00.689Z,25.03
2022-07-28T09:33:00.626Z,24.91
2022-07-28T09:34:00.608Z,24.87
2022-07-28T09:35:00.584Z,24.96
2022-07-28T09:36:00.600Z,24.99
2022-07-28T09:37:00.610Z,25.08
2022-07-28T09:38:00.557Z,25.15
2022-07-28T09:39:00.563Z,25.13
2022-07-28T09:40:00.532Z,25.03
2022-07-28T09:41:00.517Z,25.24
2022-07-28T09:42:00.531Z,25.40
2022-07-28T09:43:00.515Z,25.52
2022-07-28T09:44:00.500Z,25.39
2022-07-28T09:45:21.675Z,25.24
2022-07-28T09:46:00.478Z,25.30
2022-07-28T09:47:00.766Z,25.40
2022-07-28T09:48:00.572Z,25.47
2022-07-28T09:49:00.966Z,25.58
2022-07-28T09:50:00.524Z,25.69
2022-07-28T09:51:00.367Z,25.72
2022-07-28T09:52:00.397Z,25.80
2022-07-28T09:53:00.395Z,25.91
2022-07-28T09:54:00.348Z,25.83
2022-07-28T09:55:00.321Z,25.92
2022-07-28T09:56:00.338Z,25.97
2022-07-28T09:57:00.298Z,25.98
2022-07-28T09:58:00.297Z,25.94
2022-07-28T09:59:00.314Z,25.80
2022-07-28T10:00:00.263Z,25.80
2022-07-28T10:01:00.253Z,25.80
2022-07-28T10:02:00.952Z,25.61
2022-07-28T10:03:00.345Z,25.57
2022-07-28T10:04:02.705Z,25.58
2022-07-28T10:05:00.229Z,25.60
2022-07-28T10:06:00.234Z,25.58
2022-07-28T10:07:00.182Z,25.64
2022-07-28T10:08:00.163Z,25.77
2022-07-28T10:09:00.187Z,26.01
2022-07-28T10:10:00.191Z,26.25
2022-07-28T10:11:00.126Z,26.29
2022-07-28T10:12:00.119Z,26.07
2022-07-28T10:13:00.157Z,25.83
2022-07-28T10:14:00.089Z,25.57
2022-07-28T10:15:00.110Z,25.50
2022-07-28T10:16:00.156Z,25.45
2022-07-28T10:17:05.681Z,25.55
2022-07-28T10:18:00.117Z,25.83
2022-07-28T10:19:00.072Z,26.06
2022-07-28T10:20:00.453Z,26.06
2022-07-28T10:20:59.994Z,26.23
2022-07-28T10:21:59.997Z,26.37
2022-07-28T10:23:00.021Z,26.13
2022-07-28T10:23:59.992Z,26.07
2022-07-28T10:24:59.967Z,26.25
2022-07-28T10:25:59.981Z,26.37
2022-07-28T10:26:59.911Z,26.29
2022-07-28T10:27:59.939Z,26.09
2022-07-28T10:28:59.934Z,26.12
2022-07-28T10:29:59.913Z,26.29
2022-07-28T10:30:59.975Z,26.40
2022-07-28T10:31:59.847Z,26.39
2022-07-28T10:32:59.869Z,26.40
2022-07-28T10:33:59.873Z,26.32
2022-07-28T10:34:59.838Z,26.28
2022-07-28T10:35:59.803Z,26.36
2022-07-28T10:36:59.814Z,26.45
2022-07-28T10:37:59.777Z,26.48
2022-07-28T10:38:59.820Z,26.50
2022-07-28T10:39:59.751Z,26.50
2022-07-28T10:40:59.757Z,26.55
2022-07-28T10:41:59.755Z,26.57
2022-07-28T10:42:59.724Z,26.60
2022-07-28T10:43:59.714Z,26.72
2022-07-28T10:44:59.705Z,26.81
2022-07-28T10:46:09.675Z,26.76
2022-07-28T10:46:59.723Z,26.62
2022-07-28T10:47:59.679Z,26.58
2022-07-28T10:48:59.694Z,26.43
2022-07-28T10:49:59.643Z,26.33
2022-07-28T10:50:59.686Z,26.32
2022-07-28T10:52:08.834Z,26.44
2022-07-28T10:52:59.645Z,26.69
2022-07-28T10:53:59.565Z,26.84
2022-07-28T10:54:59.554Z,26.82
2022-07-28T10:55:59.554Z,26.87
2022-07-28T10:56:59.564Z,26.99
2022-07-28T10:58:02.113Z,27.10
2022-07-28T10:59:04.560Z,27.21
2022-07-28T11:00:05.269Z,27.21
2022-07-28T11:01:05.516Z,27.21
2022-07-28T11:01:59.611Z,27.22
2022-07-28T11:03:00.371Z,27.29
2022-07-28T11:03:59.519Z,27.46
2022-07-28T11:04:59.426Z,27.54
2022-07-28T11:05:59.419Z,27.50
2022-07-28T11:06:59.428Z,27.39
2022-07-28T11:07:59.393Z,27.24
2022-07-28T11:08:59.380Z,27.25
2022-07-28T11:09:59.370Z,27.44
2022-07-28T11:11:09.402Z,27.50
2022-07-28T11:11:59.398Z,27.46
2022-07-28T11:12:59.319Z,27.50
2022-07-28T11:13:59.384Z,27.46
2022-07-28T11:14:59.331Z,27.37
2022-07-28T11:15:59.301Z,27.41
2022-07-28T11:16:59.358Z,27.60
2022-07-28T11:17:59.429Z,27.82
2022-07-28T11:18:59.322Z,27.79
2022-07-28T11:20:25.155Z,27.79
2022-07-28T11:21:00.471Z,27.97
2022-07-28T11:21:59.213Z,27.93
2022-07-28T11:22:59.211Z,27.79
2022-07-28T11:23:59.202Z,27.81
2022-07-28T11:24:59.178Z,27.92
2022-07-28T11:25:59.170Z,27.90
2022-07-28T11:27:03.936Z,27.84
2022-07-28T11:27:59.179Z,27.81
2022-07-28T11:28:59.142Z,27.96
2022-07-28T11:29:59.149Z,28.14
2022-07-28T11:30:59.143Z,28.19
2022-07-28T11:31:59.096Z,28.07
2022-07-28T11:32:59.095Z,27.99
2022-07-28T11:33:59.052Z,28.00
2022-07-28T11:34:59.070Z,28.03
2022-07-28T11:35:59.086Z,27.92
2022-07-28T11:36:59.018Z,27.82
2022-07-28T11:37:59.025Z,27.74
2022-07-28T11:38:59.019Z,27.87
2022-07-28T11:39:58.998Z,28.12
2022-07-28T11:40:59.498Z,28.31
2022-07-28T11:41:58.948Z,28.41
2022-07-28T11:42:58.943Z,28.21
2022-07-28T11:43:58.920Z,27.96
2022-07-28T11:44:58.952Z,27.74
2022-07-28T11:45:58.967Z,27.63
2022-07-28T11:46:58.914Z,27.63
2022-07-28T11:47:58.856Z,27.63
2022-07-28T11:48:58.910Z,27.55
2022-07-28T11:49:58.865Z,27.62
2022-07-28T11:50:58.862Z,27.70
2022-07-28T11:51:58.844Z,27.72
2022-07-28T11:52:58.827Z,27.74
2022-07-28T11:53:58.863Z,27.77
2022-07-28T11:54:58.793Z,27.88
2022-07-28T11:56:02.919Z,28.00
2022-07-28T11:56:59.453Z,28.24
2022-07-28T11:57:58.754Z,28.52
2022-07-28T11:58:58.744Z,28.70
2022-07-28T11:59:58.737Z,28.86
2022-07-28T12:00:58.726Z,28.74
2022-07-28T12:01:58.761Z,28.67
2022-07-28T12:02:58.749Z,28.56
2022-07-28T12:03:59.129Z,28.40
2022-07-28T12:04:58.746Z,28.33
2022-07-28T12:05:58.667Z,28.39
2022-07-28T12:06:58.675Z,28.37
2022-07-28T12:07:58.619Z,28.41
2022-07-28T12:08:58.667Z,28.41
2022-07-28T12:09:58.615Z,28.37
2022-07-28T12:10:58.607Z,28.33
2022-07-28T12:11:58.593Z,28.25
2022-07-28T12:12:58.561Z,28.17
2022-07-28T12:13:59.485Z,28.09
2022-07-28T12:15:02.070Z,27.87
2022-07-28T12:15:58.545Z,27.74
2022-07-28T12:16:58.578Z,27.69
2022-07-28T12:17:58.517Z,27.65
2022-07-28T12:18:58.477Z,27.57
2022-07-28T12:19:58.485Z,27.69
2022-07-28T12:21:03.072Z,27.87
2022-07-28T12:21:58.448Z,27.96
2022-07-28T12:22:58.480Z,28.03
2022-07-28T12:23:58.433Z,28.24
2022-07-28T12:24:58.471Z,28.49
2022-07-28T12:25:58.416Z,28.64
2022-07-28T12:26:58.391Z,28.58
2022-07-28T12:27:58.365Z,28.43
2022-07-28T12:28:58.346Z,28.31
2022-07-28T12:29:58.383Z,28.18
2022-07-28T12:30:58.366Z,28.14
2022-07-28T12:31:58.352Z,28.07
2022-07-28T12:32:58.939Z,28.15
2022-07-28T12:33:59.338Z,28.06
2022-07-28T12:34:58.317Z,28.12
2022-07-28T12:35:58.282Z,28.21
2022-07-28T12:36:58.283Z,28.37
2022-07-28T12:37:58.231Z,28.41
2022-07-28T12:38:58.279Z,28.48
2022-07-28T12:39:58.267Z,28.49
2022-07-28T12:40:58.222Z,28.44
2022-07-28T12:41:58.228Z,28.48
2022-07-28T12:42:58.183Z,28.44
2022-07-28T12:43:58.208Z,28.41
2022-07-28T12:44:58.940Z,28.41
2022-07-28T12:45:58.216Z,28.34
2022-07-28T12:46:58.126Z,28.31
2022-07-28T12:47:58.108Z,28.34
2022-07-28T12:48:58.221Z,28.40
2022-07-28T12:50:00.511Z,28.43
2022-07-28T12:50:58.114Z,28.44
2022-07-28T12:51:58.084Z,28.41